Strona główna
METAR-TAF:

METAR-TAF

Lotnisko :

Yeovilton, Anglia

Szerokość geograficzna: 51-00N, Długość geograficzna: 002-38W, wysokość: 23 m

Aktualna obserwacja pogody

Raport powstał 35 minut temu, godzina 15:20 UTC
Wiatr 24 kt od północny wschód w porywach dochodzący do 34 kt
Temperatura 10°C
Wilgotność 62%
Ciśnienie 1029 hPa
Widzialność 10 km lub więcej
Rozproszone chmury na wysokości 3000 ft

METAR: EGDY 281520Z 04024G34KT 9999 SCT030 10/03 Q1029 NOSIG RMK BLU BLU

czas: 15:55 (15:55 UTC)

Prognoza

Raport powstał 33 godziny i 18 minut temu, godzina 06:37 UTC
Prognoza ważna od 27 godzina 09 UTC do 27 godzina 18 UTC
Wiatr 3 kt z kierunków zmiennych
Widzialność 10 km lub więcej
Brak chmur poniżej 1500 m i brak chmur cumulonimbus
Stopniowe zmiany
od 27 godzina 11 UTC do 27 godzina 13 UTC
Wiatr 10 kt od północny wschód
Widzialność 10 km lub więcej
Rozproszone chmury na wysokości 3500 ft

TAF: EGDY 270637Z 2709/2718 VRB03KT CAVOK BECMG 2711/2713 05010KT 9999 SCT035

Obserwacja i prognoza pogody dla ponad 4000 lotnisk (raport METAR i TAF).

Dostępne stacje oznaczono żółtymi i czerwonymi punktami na mapie.

Najedź kursorem aby zobaczyć nazwę stacji.

Kliknij aby zobaczyć obserwacje i prognozy pogody.

Aby zmienić mapę: kliknij na zielony przycisk z czarnym krzyżykiem, aby powiększyć; na zielony przycisk z myślnikiem, aby pomniejszyć; na zielone strzałki, aby przejść do map sąsiednich.


METAR-TAF: